Time;durP1;ratioP1;P1;durP2;ratioP2;P2;SDS_P1;SDS_P2;PMS_P1;PMS_P2;Temp;Humidity;BMP_temperature;BMP_pressure;BME280_temperature;BME280_humidity;BME280_pressure;Samples;Min_cycle;Max_cycle;Signal;HPM_P1;HPM_P2
2023/05/02 00:03:43;;;;;;;;;;;12.00;84.30;;;;;;5057967;28;19920;-90
2023/05/02 00:06:12;;;;;;;;;;;11.90;84.50;;;;;;5059574;28;20015;-91
2023/05/02 00:08:46;;;;;;;;;;;11.90;84.40;;;;;;5055997;28;19912;-90
2023/05/02 00:11:13;;;;;;;;;;;11.80;85.10;;;;;;5056313;28;19927;-90
2023/05/02 00:13:39;;;;;;;;;;;11.70;84.90;;;;;;5064358;28;19983;-90
2023/05/02 00:16:21;;;;;;;;;;;11.70;85.60;;;;;;5053947;28;19955;-91
2023/05/02 00:18:54;;;;;;;;;;;11.60;85.40;;;;;;5056147;28;19995;-91
2023/05/02 00:21:20;;;;;;;;;;;11.60;85.50;;;;;;5051996;28;20105;-90
2023/05/02 00:23:46;;;;;;;;;;;11.50;85.70;;;;;;5053109;28;20393;-90
2023/05/02 00:26:43;;;;;;;;;;;11.60;85.80;;;;;;5052559;28;19966;-90
2023/05/02 00:32:27;;;;;;;;;;;11.50;85.90;;;;;;5056425;28;20008;-90
2023/05/02 00:35:19;;;;;;;;;;;11.50;85.70;;;;;;5057922;28;19917;-90
2023/05/02 00:37:44;;;;;;;;;;;11.50;85.30;;;;;;5062172;28;20027;-90
2023/05/02 00:40:19;;;;;;;;;;;11.50;85.80;;;;;;5068880;28;20417;-90
2023/05/02 00:42:44;;;;;;;;;;;11.40;85.90;;;;;;5057889;28;19917;-90
2023/05/02 00:45:23;;;;;;;;;;;;;;;;;;;;;
2023/05/02 00:47:54;;;;;;;;;;;11.40;85.80;;;;;;5049240;28;19917;-90
2023/05/02 00:50:26;;;;;;;;;;;11.20;86.40;;;;;;5048081;28;19974;-90
2023/05/02 00:52:54;;;;;;;;;;;11.30;86.80;;;;;;5052071;28;19980;-90
2023/05/02 00:55:22;;;;;;;;;;;11.20;86.80;;;;;;5049956;28;19916;-90
2023/05/02 00:57:51;;;;;;;;;;;11.20;86.60;;;;;;5051813;28;19920;-90
2023/05/02 01:03:51;;;;;;;;;;;11.40;85.90;;;;;;5051599;28;19919;-91
2023/05/02 01:06:36;;;;;;;;;;;11.40;86.70;;;;;;5050890;28;20012;-90
2023/05/02 01:09:04;;;;;;;;;;;11.40;87.20;;;;;;5059842;28;19919;-90
2023/05/02 01:11:38;;;;;;;;;;;11.50;86.70;;;;;;5053036;28;20016;-91
2023/05/02 01:17:11;;;;;;;;;;;11.60;85.60;;;;;;5010329;28;20314;-90
2023/05/02 01:19:41;;;;;;;;;;;11.60;85.80;;;;;;5047353;28;19966;-90
2023/05/02 01:22:10;;;;;;;;;;;11.60;86.00;;;;;;5053697;28;19944;-90
2023/05/02 01:24:42;;;;;;;;;;;11.60;85.40;;;;;;5057907;28;19963;-90
2023/05/02 01:27:13;;;;;;;;;;;11.60;85.50;;;;;;5052123;28;19999;-90
2023/05/02 01:29:58;;;;;;;;;;;11.60;85.90;;;;;;5060288;28;19917;-90
2023/05/02 01:32:25;;;;;;;;;;;11.60;85.70;;;;;;5046146;28;19924;-90
2023/05/02 01:34:51;;;;;;;;;;;11.60;85.50;;;;;;5070821;28;20019;-91
2023/05/02 01:37:30;;;;;;;;;;;11.60;85.20;;;;;;5069892;28;19904;-91
2023/05/02 01:39:56;;;;;;;;;;;11.60;85.50;;;;;;5060076;28;19917;-91
2023/05/02 01:45:21;;;;;;;;;;;11.60;85.50;;;;;;5052658;28;20013;-90
2023/05/02 01:54:37;;;;;;;;;;;;;;;;;;;;;
2023/05/02 02:03:48;;;;;;;;;;;;;;;;;;;;;
2023/05/02 02:06:42;;;;;;;;;;;;;;;;;;;;;
2023/05/02 02:16:29;;;;;;;;;;;11.60;85.90;;;;;;4969318;28;19929;-85
2023/05/02 02:22:18;;;;;;;;;;;;;;;;;;;;;
2023/05/02 02:24:50;;;;;;;;;;;11.60;85.60;;;;;;5037655;28;19980;-84
2023/05/02 02:27:43;;;;;;;;;;;;;;;;;;;;;
2023/05/02 02:30:15;;;;;;;;;;;11.60;85.90;;;;;;5034663;28;20103;-84
2023/05/02 02:36:32;;;;;;;;;;;11.40;85.40;;;;;;5037773;28;19917;-84
2023/05/02 02:39:45;;;;;;;;;;;;;;;;;;;;;
2023/05/02 02:42:42;;;;;;;;;;;11.30;86.00;;;;;;5042467;28;19995;-84
2023/05/02 02:45:53;;;;;;;;;;;11.40;86.10;;;;;;5030797;28;20051;-84
2023/05/02 02:48:38;;;;;;;;;;;11.30;86.50;;;;;;5037741;28;19919;-84
2023/05/02 02:51:26;;;;;;;;;;;;;;;;;;;;;
2023/05/02 02:57:45;;;;;;;;;;;;;;;;;;;;;
2023/05/02 03:00:51;;;;;;;;;;;;;;;;;;;;;
2023/05/02 03:03:30;;;;;;;;;;;11.30;86.50;;;;;;4994062;28;20001;-85
2023/05/02 03:05:58;;;;;;;;;;;11.40;86.10;;;;;;5028616;23;19921;-90
2023/05/02 03:08:46;;;;;;;;;;;11.40;86.20;;;;;;4994323;28;20017;-90
2023/05/02 03:11:17;;;;;;;;;;;11.30;86.10;;;;;;5023507;22;19932;-82
2023/05/02 03:13:42;;;;;;;;;;;11.30;86.00;;;;;;5025399;28;19972;-81
2023/05/02 03:16:20;;;;;;;;;;;11.30;85.90;;;;;;5023695;28;20355;-82
2023/05/02 03:18:48;;;;;;;;;;;11.30;85.80;;;;;;5029558;28;19985;-82
2023/05/02 03:21:21;;;;;;;;;;;11.30;85.40;;;;;;5028311;28;19948;-83
2023/05/02 03:23:57;;;;;;;;;;;11.40;85.20;;;;;;5034500;28;19959;-82
2023/05/02 03:26:51;;;;;;;;;;;11.20;85.60;;;;;;5032832;28;19913;-83
2023/05/02 03:29:16;;;;;;;;;;;11.20;85.70;;;;;;5027959;28;19923;-83
2023/05/02 03:31:45;;;;;;;;;;;11.20;85.70;;;;;;5034030;28;19956;-82
2023/05/02 03:34:21;;;;;;;;;;;11.20;85.40;;;;;;5031228;28;19925;-83
2023/05/02 03:36:46;;;;;;;;;;;11.20;85.10;;;;;;5030906;28;19917;-83
2023/05/02 03:39:12;;;;;;;;;;;11.10;85.50;;;;;;5040389;28;20011;-82
2023/05/02 03:41:46;;;;;;;;;;;11.30;85.40;;;;;;5031055;28;19913;-82
2023/05/02 03:44:19;;;;;;;;;;;11.20;85.50;;;;;;5025591;28;19917;-83
2023/05/02 03:46:48;;;;;;;;;;;11.10;86.10;;;;;;5036558;28;20531;-83
2023/05/02 03:49:35;;;;;;;;;;;11.10;86.30;;;;;;5030316;28;19913;-82
2023/05/02 03:52:06;;;;;;;;;;;11.10;86.80;;;;;;5028758;28;19935;-84
2023/05/02 03:54:32;;;;;;;;;;;11.20;86.80;;;;;;5034405;28;19940;-83
2023/05/02 03:56:58;;;;;;;;;;;11.20;86.50;;;;;;5040855;28;19917;-82
2023/05/02 03:59:24;;;;;;;;;;;11.20;86.40;;;;;;5054398;28;19939;-82
2023/05/02 04:01:49;;;;;;;;;;;11.10;86.60;;;;;;5038501;28;19917;-84
2023/05/02 04:04:18;;;;;;;;;;;11.10;87.00;;;;;;5035035;28;20015;-82
2023/05/02 04:06:48;;;;;;;;;;;11.20;86.70;;;;;;5037904;28;19913;-83
2023/05/02 04:09:14;;;;;;;;;;;11.20;86.60;;;;;;5035127;28;20474;-82
2023/05/02 04:11:40;;;;;;;;;;;11.10;87.00;;;;;;5033278;28;19917;-82
2023/05/02 04:14:06;;;;;;;;;;;11.20;86.90;;;;;;5041135;28;19925;-82
2023/05/02 04:16:31;;;;;;;;;;;11.20;86.30;;;;;;5048783;28;19917;-81
2023/05/02 04:18:57;;;;;;;;;;;11.30;86.70;;;;;;5041718;28;19909;-83
2023/05/02 04:21:23;;;;;;;;;;;11.40;85.90;;;;;;5036264;28;19913;-86
2023/05/02 04:23:59;;;;;;;;;;;11.40;85.70;;;;;;5052511;28;19901;-84
2023/05/02 04:26:25;;;;;;;;;;;11.30;85.90;;;;;;5050724;28;19924;-83
2023/05/02 04:28:50;;;;;;;;;;;11.30;85.80;;;;;;5045289;28;19917;-85
2023/05/02 04:31:16;;;;;;;;;;;11.20;86.20;;;;;;5033991;28;20307;-85
2023/05/02 04:33:41;;;;;;;;;;;11.20;86.70;;;;;;5041586;28;19915;-84
2023/05/02 04:36:12;;;;;;;;;;;11.20;87.10;;;;;;5041682;28;19967;-85
2023/05/02 04:38:43;;;;;;;;;;;11.20;86.60;;;;;;5029900;28;20012;-86
2023/05/02 04:41:12;;;;;;;;;;;11.30;86.70;;;;;;5033215;28;19964;-87
2023/05/02 04:43:49;;;;;;;;;;;11.20;86.80;;;;;;5033936;28;19910;-86
2023/05/02 04:46:21;;;;;;;;;;;11.10;88.00;;;;;;5038520;28;19897;-87
2023/05/02 04:48:47;;;;;;;;;;;11.20;87.90;;;;;;5034548;28;20003;-86
2023/05/02 04:51:16;;;;;;;;;;;11.20;87.60;;;;;;5029755;28;20008;-87
2023/05/02 04:53:47;;;;;;;;;;;11.20;87.70;;;;;;5026979;28;20319;-84
2023/05/02 04:56:41;;;;;;;;;;;11.10;88.20;;;;;;5034251;28;19913;-89
2023/05/02 04:59:15;;;;;;;;;;;11.10;88.30;;;;;;5034524;28;19913;-88
2023/05/02 05:01:59;;;;;;;;;;;11.10;88.50;;;;;;5046063;28;19913;-90
2023/05/02 05:04:32;;;;;;;;;;;11.10;88.40;;;;;;5050683;28;19935;-89
2023/05/02 05:06:58;;;;;;;;;;;11.10;88.60;;;;;;5043339;28;19913;-90
2023/05/02 05:09:24;;;;;;;;;;;11.20;88.80;;;;;;5034931;28;19920;-86
2023/05/02 05:18:45;;;;;;;;;;;11.20;88.70;;;;;;5036054;28;19916;-89
2023/05/02 05:21:19;;;;;;;;;;;11.10;88.60;;;;;;4972725;28;19914;-89
2023/05/02 05:23:47;;;;;;;;;;;11.10;89.10;;;;;;4976009;28;19977;-87
2023/05/02 05:29:48;;;;;;;;;;;11.20;89.00;;;;;;4977720;28;20049;-88
2023/05/02 05:32:28;;;;;;;;;;;11.30;88.30;;;;;;4966491;28;20451;-88
2023/05/02 05:35:01;;;;;;;;;;;11.10;88.40;;;;;;4970236;28;19918;-90
2023/05/02 05:37:26;;;;;;;;;;;11.00;88.50;;;;;;4972002;28;19929;-89
2023/05/02 05:40:01;;;;;;;;;;;11.00;88.10;;;;;;5050859;28;19917;-90
2023/05/02 05:42:33;;;;;;;;;;;10.90;88.60;;;;;;5036477;28;19932;-89
2023/05/02 05:45:02;;;;;;;;;;;10.90;88.60;;;;;;5035664;28;19913;-90
2023/05/02 05:47:30;;;;;;;;;;;10.80;88.40;;;;;;5037898;28;19963;-90
2023/05/02 05:49:58;;;;;;;;;;;10.80;88.70;;;;;;5054044;28;19909;-90
2023/05/02 05:52:49;;;;;;;;;;;10.80;88.30;;;;;;5038036;28;19913;-90
2023/05/02 05:55:45;;;;;;;;;;;;;;;;;;;;;
2023/05/02 05:58:41;;;;;;;;;;;10.70;87.80;;;;;;5041376;28;20007;-90
2023/05/02 06:01:20;;;;;;;;;;;10.70;88.40;;;;;;5061738;28;19905;-91
2023/05/02 06:03:48;;;;;;;;;;;10.70;88.30;;;;;;5064507;28;19939;-89
2023/05/02 06:06:13;;;;;;;;;;;10.70;87.90;;;;;;5046734;28;19980;-88
2023/05/02 06:08:38;;;;;;;;;;;10.70;87.80;;;;;;5039717;28;19971;-89
2023/05/02 06:11:07;;;;;;;;;;;10.80;87.80;;;;;;5040265;28;20016;-94
2023/05/02 06:13:33;;;;;;;;;;;10.80;87.60;;;;;;5041733;28;19921;-90
2023/05/02 06:16:05;;;;;;;;;;;10.80;87.10;;;;;;5039889;28;19932;-91
2023/05/02 06:18:30;;;;;;;;;;;10.80;87.70;;;;;;5061426;28;19919;-92
2023/05/02 06:20:56;;;;;;;;;;;10.80;87.10;;;;;;5060735;28;19909;-92
2023/05/02 06:23:22;;;;;;;;;;;10.80;87.90;;;;;;5048909;28;19971;-91
2023/05/02 06:25:47;;;;;;;;;;;10.90;87.30;;;;;;5042029;28;19960;-89
2023/05/02 06:28:13;;;;;;;;;;;10.90;87.20;;;;;;5050920;28;19982;-87
2023/05/02 06:30:40;;;;;;;;;;;11.00;87.20;;;;;;5047168;28;20337;-89
2023/05/02 06:33:06;;;;;;;;;;;11.00;86.60;;;;;;5040336;28;19940;-90
2023/05/02 06:35:32;;;;;;;;;;;11.10;85.40;;;;;;5055701;28;19913;-91
2023/05/02 06:37:57;;;;;;;;;;;11.10;86.00;;;;;;5052948;28;19901;-90
2023/05/02 06:40:23;;;;;;;;;;;11.10;86.10;;;;;;5054911;28;19909;-91
2023/05/02 06:42:48;;;;;;;;;;;11.30;85.80;;;;;;5050072;28;19921;-90
2023/05/02 06:45:20;;;;;;;;;;;11.60;86.10;;;;;;5048391;28;19936;-90
2023/05/02 06:47:45;;;;;;;;;;;11.70;84.80;;;;;;5042172;28;19917;-90
2023/05/02 06:50:20;;;;;;;;;;;11.60;85.00;;;;;;5045769;28;20011;-89
2023/05/02 06:52:45;;;;;;;;;;;11.60;84.80;;;;;;5040102;28;19914;-91
2023/05/02 06:55:11;;;;;;;;;;;11.70;83.80;;;;;;5042153;28;19913;-90
2023/05/02 06:57:36;;;;;;;;;;;11.70;83.30;;;;;;5041642;28;19977;-91
2023/05/02 07:00:03;;;;;;;;;;;11.80;82.50;;;;;;5042844;28;19913;-91
2023/05/02 07:02:29;;;;;;;;;;;11.80;82.40;;;;;;5046739;28;19925;-89
2023/05/02 07:04:54;;;;;;;;;;;11.70;84.30;;;;;;5050741;28;19963;-90
2023/05/02 07:07:20;;;;;;;;;;;11.80;83.80;;;;;;5042435;28;19913;-90
2023/05/02 07:09:46;;;;;;;;;;;11.80;82.00;;;;;;5041593;28;19941;-91
2023/05/02 07:12:11;;;;;;;;;;;11.60;83.10;;;;;;5058970;28;19916;-90
2023/05/02 07:14:37;;;;;;;;;;;11.70;82.10;;;;;;5044987;28;19913;-90
2023/05/02 07:17:02;;;;;;;;;;;11.50;83.40;;;;;;5039349;28;19976;-89
2023/05/02 07:19:28;;;;;;;;;;;11.50;84.30;;;;;;5044928;28;19949;-88
2023/05/02 07:21:53;;;;;;;;;;;11.40;83.60;;;;;;5047392;28;19913;-91
2023/05/02 07:24:19;;;;;;;;;;;11.40;83.50;;;;;;5044224;28;19936;-89
2023/05/02 07:26:46;;;;;;;;;;;11.60;82.80;;;;;;5042037;28;19909;-89
2023/05/02 07:29:12;;;;;;;;;;;11.50;82.70;;;;;;5047273;28;19913;-83
2023/05/02 07:31:38;;;;;;;;;;;11.30;83.70;;;;;;5048114;28;19913;-91
2023/05/02 07:34:03;;;;;;;;;;;11.20;84.50;;;;;;5056877;28;19996;-89
2023/05/02 07:36:29;;;;;;;;;;;11.20;84.30;;;;;;5041481;28;19913;-88
2023/05/02 07:38:54;;;;;;;;;;;11.10;85.00;;;;;;5041092;28;19921;-88
2023/05/02 07:41:20;;;;;;;;;;;11.10;84.10;;;;;;5038727;28;19913;-88
2023/05/02 07:43:45;;;;;;;;;;;11.20;83.90;;;;;;5044609;28;19898;-90
2023/05/02 07:46:11;;;;;;;;;;;11.30;83.60;;;;;;5045872;28;19920;-88
2023/05/02 07:48:36;;;;;;;;;;;11.30;83.00;;;;;;5047882;28;20017;-87
2023/05/02 07:51:09;;;;;;;;;;;11.20;83.70;;;;;;5048193;28;19917;-88
2023/05/02 07:53:34;;;;;;;;;;;11.10;83.70;;;;;;5038378;28;19920;-87
2023/05/02 07:56:00;;;;;;;;;;;10.60;82.10;;;;;;5035271;28;19913;-88
2023/05/02 07:58:26;;;;;;;;;;;10.40;82.80;;;;;;5052581;28;19909;-87
2023/05/02 08:00:51;;;;;;;;;;;10.30;83.20;;;;;;5044053;28;19943;-88
2023/05/02 08:03:17;;;;;;;;;;;10.00;84.20;;;;;;5041815;28;19909;-89
2023/05/02 08:05:54;;;;;;;;;;;9.90;85.40;;;;;;5042410;28;19914;-90
2023/05/02 08:08:20;;;;;;;;;;;10.00;84.80;;;;;;5048773;28;19909;-88
2023/05/02 08:10:45;;;;;;;;;;;10.00;84.20;;;;;;5046985;28;19924;-88
2023/05/02 08:13:11;;;;;;;;;;;9.90;85.30;;;;;;5038987;28;20383;-89
2023/05/02 08:15:37;;;;;;;;;;;9.90;85.40;;;;;;5040296;28;19928;-90
2023/05/02 08:18:05;;;;;;;;;;;10.00;86.00;;;;;;5039847;28;19913;-91
2023/05/02 08:20:35;;;;;;;;;;;10.10;83.90;;;;;;5042925;28;19909;-89
2023/05/02 08:23:03;;;;;;;;;;;10.20;83.30;;;;;;5037070;28;19910;-89
2023/05/02 08:25:31;;;;;;;;;;;10.10;84.10;;;;;;5029303;28;19931;-87
2023/05/02 08:27:57;;;;;;;;;;;10.10;84.10;;;;;;5039303;28;19921;-88
2023/05/02 08:30:44;;;;;;;;;;;;;;;;;;;;;
2023/05/02 08:33:10;;;;;;;;;;;10.00;83.10;;;;;;5043813;28;19988;-91
2023/05/02 08:35:35;;;;;;;;;;;10.00;83.60;;;;;;5056904;28;19904;-90
2023/05/02 08:38:01;;;;;;;;;;;9.70;84.50;;;;;;5040822;28;19917;-89
2023/05/02 08:40:26;;;;;;;;;;;9.70;84.70;;;;;;5047600;28;19920;-92
2023/05/02 08:43:03;;;;;;;;;;;9.60;84.10;;;;;;5057889;28;19901;-93
2023/05/02 08:45:58;;;;;;;;;;;9.60;83.70;;;;;;5062813;28;19928;-92
2023/05/02 08:51:51;;;;;;;;;;;9.50;84.50;;;;;;4997917;28;19932;-92
2023/05/02 08:54:18;;;;;;;;;;;9.50;85.10;;;;;;5040070;28;19928;-91
2023/05/02 08:57:11;;;;;;;;;;;9.80;83.40;;;;;;5033166;28;20321;-92
2023/05/02 08:59:55;;;;;;;;;;;9.80;84.10;;;;;;5039859;28;19923;-92
2023/05/02 09:02:40;;;;;;;;;;;10.10;83.60;;;;;;5036076;28;20225;-92
2023/05/02 09:05:35;;;;;;;;;;;10.20;82.80;;;;;;5029654;28;19913;-90
2023/05/02 09:08:19;;;;;;;;;;;;;;;;;;;;;
2023/05/02 09:10:45;;;;;;;;;;;10.00;82.80;;;;;;5060230;22;19929;-84
2023/05/02 09:13:43;;;;;;;;;;;10.10;82.80;;;;;;5026366;28;20528;-83
2023/05/02 09:16:12;;;;;;;;;;;10.20;81.50;;;;;;4998144;28;19929;-84
2023/05/02 09:18:39;;;;;;;;;;;10.10;82.70;;;;;;5034122;28;19940;-83
2023/05/02 09:21:09;;;;;;;;;;;10.20;80.90;;;;;;5041740;28;19919;-83
2023/05/02 09:23:36;;;;;;;;;;;10.20;79.40;;;;;;5038115;28;19939;-84
2023/05/02 09:26:09;;;;;;;;;;;10.10;80.00;;;;;;5035078;28;19980;-84
2023/05/02 09:28:39;;;;;;;;;;;10.20;81.00;;;;;;5041443;28;20038;-84
2023/05/02 09:31:13;;;;;;;;;;;10.30;79.00;;;;;;5035445;28;19923;-83
2023/05/02 09:33:38;;;;;;;;;;;10.20;78.70;;;;;;5031776;28;20097;-84
2023/05/02 09:36:06;;;;;;;;;;;10.10;79.30;;;;;;5042456;28;19956;-84
2023/05/02 09:38:31;;;;;;;;;;;10.20;79.20;;;;;;5030679;28;19913;-83
2023/05/02 09:40:58;;;;;;;;;;;10.40;80.30;;;;;;5052485;28;21302;-86
2023/05/02 09:43:23;;;;;;;;;;;10.40;79.20;;;;;;5031606;28;19989;-85
2023/05/02 09:45:56;;;;;;;;;;;10.60;79.90;;;;;;5039571;28;19940;-84
2023/05/02 09:48:21;;;;;;;;;;;10.80;79.50;;;;;;5042288;28;19917;-84
2023/05/02 09:50:47;;;;;;;;;;;10.80;77.90;;;;;;5037689;28;20360;-85
2023/05/02 09:53:12;;;;;;;;;;;10.50;78.50;;;;;;5068697;28;19923;-84
2023/05/02 09:55:38;;;;;;;;;;;10.40;78.60;;;;;;5045569;28;20395;-85
2023/05/02 09:58:04;;;;;;;;;;;10.20;79.80;;;;;;5051522;28;19913;-85
2023/05/02 10:00:43;;;;;;;;;;;10.20;80.20;;;;;;5053822;28;20012;-85
2023/05/02 10:03:09;;;;;;;;;;;10.20;81.40;;;;;;5038630;28;19922;-84
2023/05/02 10:05:38;;;;;;;;;;;10.20;81.40;;;;;;5038942;28;19925;-84
2023/05/02 10:08:08;;;;;;;;;;;10.30;80.60;;;;;;5031021;28;19920;-85
2023/05/02 10:10:38;;;;;;;;;;;10.40;79.90;;;;;;5029348;28;19945;-87
2023/05/02 10:13:04;;;;;;;;;;;10.40;79.60;;;;;;5034237;28;19917;-85
2023/05/02 10:15:31;;;;;;;;;;;10.30;79.90;;;;;;5048620;28;19927;-83
2023/05/02 10:18:02;;;;;;;;;;;10.30;80.10;;;;;;5029544;28;19914;-83
2023/05/02 10:20:34;;;;;;;;;;;10.30;79.30;;;;;;5026040;28;19914;-84
2023/05/02 10:23:03;;;;;;;;;;;10.50;80.10;;;;;;5021916;28;19917;-84
2023/05/02 10:25:29;;;;;;;;;;;10.60;80.70;;;;;;5020437;28;19964;-84
2023/05/02 10:27:58;;;;;;;;;;;10.90;78.50;;;;;;5030003;28;19913;-82
2023/05/02 10:30:24;;;;;;;;;;;11.00;76.60;;;;;;5035792;28;19992;-84
2023/05/02 10:32:51;;;;;;;;;;;11.00;74.60;;;;;;5040419;28;19943;-83
2023/05/02 10:35:16;;;;;;;;;;;11.10;75.60;;;;;;5041474;28;20455;-84
2023/05/02 10:37:42;;;;;;;;;;;11.10;75.80;;;;;;5045474;28;19917;-85
2023/05/02 10:40:11;;;;;;;;;;;11.10;76.30;;;;;;5043027;28;20272;-84
2023/05/02 10:42:38;;;;;;;;;;;11.20;75.80;;;;;;5042021;28;19917;-84
2023/05/02 10:45:04;;;;;;;;;;;11.30;75.70;;;;;;5047326;28;19984;-82
2023/05/02 10:47:30;;;;;;;;;;;11.20;74.10;;;;;;5036674;28;19936;-84
2023/05/02 10:49:59;;;;;;;;;;;11.40;74.10;;;;;;5048382;28;19988;-83
2023/05/02 10:52:27;;;;;;;;;;;11.30;73.80;;;;;;5049675;28;20033;-83
2023/05/02 10:55:12;;;;;;;;;;;11.30;72.10;;;;;;5038799;28;19934;-83
2023/05/02 10:57:57;;;;;;;;;;;11.20;71.30;;;;;;5038480;28;19949;-83
2023/05/02 11:00:31;;;;;;;;;;;11.60;71.20;;;;;;5038547;28;20240;-84
2023/05/02 11:02:56;;;;;;;;;;;11.80;69.60;;;;;;5039649;28;19913;-84
2023/05/02 11:05:23;;;;;;;;;;;12.00;68.10;;;;;;5045678;28;19921;-84
2023/05/02 11:07:48;;;;;;;;;;;11.90;69.30;;;;;;5038943;28;19921;-84
2023/05/02 11:10:14;;;;;;;;;;;12.00;67.90;;;;;;5052961;28;19940;-84
2023/05/02 11:12:47;;;;;;;;;;;12.00;67.10;;;;;;5042174;28;19935;-83
2023/05/02 11:15:33;;;;;;;;;;;12.20;67.10;;;;;;5039130;28;21120;-82
2023/05/02 11:18:00;;;;;;;;;;;12.40;69.60;;;;;;5019140;28;20003;-82
2023/05/02 11:20:26;;;;;;;;;;;12.60;66.20;;;;;;5033150;28;20353;-84
2023/05/02 11:22:54;;;;;;;;;;;12.80;66.60;;;;;;5028647;28;19917;-84
2023/05/02 11:25:36;;;;;;;;;;;13.00;64.20;;;;;;5033222;28;20015;-88
2023/05/02 11:28:04;;;;;;;;;;;13.10;62.60;;;;;;5034672;28;19921;-87
2023/05/02 11:30:37;;;;;;;;;;;12.90;62.20;;;;;;5034968;28;19909;-87
2023/05/02 11:33:02;;;;;;;;;;;12.80;62.80;;;;;;5032941;28;19913;-87
2023/05/02 11:35:30;;;;;;;;;;;12.80;63.20;;;;;;5036093;28;20108;-87
2023/05/02 11:37:55;;;;;;;;;;;12.80;62.80;;;;;;5033048;28;19925;-86
2023/05/02 11:40:21;;;;;;;;;;;13.10;62.90;;;;;;5022263;28;19963;-86
2023/05/02 11:42:47;;;;;;;;;;;12.80;62.20;;;;;;5030874;28;19955;-86
2023/05/02 11:45:12;;;;;;;;;;;12.60;62.10;;;;;;5051179;28;20418;-87
2023/05/02 11:47:38;;;;;;;;;;;12.60;63.60;;;;;;5036970;28;20081;-86
2023/05/02 11:50:04;;;;;;;;;;;12.80;63.30;;;;;;5035718;28;20002;-86
2023/05/02 11:52:30;;;;;;;;;;;12.90;62.40;;;;;;5036191;28;20047;-87
2023/05/02 11:54:56;;;;;;;;;;;12.80;60.80;;;;;;5036558;28;19917;-86
2023/05/02 11:57:22;;;;;;;;;;;12.50;61.60;;;;;;5037134;28;20015;-86
2023/05/02 11:59:54;;;;;;;;;;;12.50;62.30;;;;;;5048197;28;19917;-86
2023/05/02 12:02:34;;;;;;;;;;;12.60;60.30;;;;;;5037064;28;19913;-86
2023/05/02 12:05:01;;;;;;;;;;;12.50;63.40;;;;;;5036490;28;19963;-86
2023/05/02 12:07:40;;;;;;;;;;;12.60;62.80;;;;;;5038549;28;20004;-86
2023/05/02 12:10:09;;;;;;;;;;;12.70;60.10;;;;;;5036405;28;19956;-87
2023/05/02 12:12:35;;;;;;;;;;;12.70;59.20;;;;;;5051091;28;20015;-87
2023/05/02 12:15:08;;;;;;;;;;;13.00;61.90;;;;;;5054807;28;19935;-87
2023/05/02 12:17:35;;;;;;;;;;;13.20;59.10;;;;;;5032923;28;20343;-87
2023/05/02 12:20:05;;;;;;;;;;;13.50;58.10;;;;;;5031715;28;19909;-87
2023/05/02 12:22:31;;;;;;;;;;;13.50;56.80;;;;;;5032508;28;19940;-86
2023/05/02 12:24:57;;;;;;;;;;;13.60;55.70;;;;;;5030138;28;20004;-88
2023/05/02 12:30:31;;;;;;;;;;;13.60;54.90;;;;;;5027827;28;19975;-90
2023/05/02 12:33:22;;;;;;;;;;;13.40;54.90;;;;;;5031739;28;19990;-89
2023/05/02 12:43:03;;;;;;;;;;;13.30;55.70;;;;;;5022544;28;19967;-91
2023/05/02 12:45:38;;;;;;;;;;;13.30;53.60;;;;;;5018780;28;19913;-91
2023/05/02 12:48:21;;;;;;;;;;;13.20;55.60;;;;;;5024465;28;19913;-91
2023/05/02 12:50:50;;;;;;;;;;;13.50;55.70;;;;;;5032807;28;19917;-91
2023/05/02 12:53:16;;;;;;;;;;;13.50;54.30;;;;;;5026195;28;19943;-89
2023/05/02 12:55:42;;;;;;;;;;;13.60;54.80;;;;;;5062639;28;19940;-90
2023/05/02 12:58:41;;;;;;;;;;;13.60;53.60;;;;;;5053885;28;19917;-87
2023/05/02 13:01:40;;;;;;;;;;;;;;;;;;;;;
2023/05/02 13:07:31;;;;;;;;;;;13.60;51.50;;;;;;4960294;28;19925;-85
2023/05/02 13:10:03;;;;;;;;;;;13.50;51.80;;;;;;5012120;28;19914;-85
2023/05/02 13:12:29;;;;;;;;;;;13.50;52.30;;;;;;5023081;28;19917;-86
2023/05/02 13:15:46;;;;;;;;;;;;;;;;;;;;;
2023/05/02 13:18:38;;;;;;;;;;;;;;;;;;;;;
2023/05/02 13:25:27;;;;;;;;;;;;;;;;;;;;;
2023/05/02 13:27:54;;;;;;;;;;;13.40;51.30;;;;;;4983425;28;19972;-86
2023/05/02 13:30:19;;;;;;;;;;;13.30;50.10;;;;;;5033298;28;19928;-86
2023/05/02 13:32:45;;;;;;;;;;;13.10;50.20;;;;;;5036285;28;19913;-86
2023/05/02 13:35:12;;;;;;;;;;;12.90;52.40;;;;;;5014450;28;19913;-86
2023/05/02 13:37:47;;;;;;;;;;;12.70;51.10;;;;;;5019952;28;19914;-87
2023/05/02 13:40:45;;;;;;;;;;;12.60;52.70;;;;;;5037166;28;19913;-87
2023/05/02 13:43:17;;;;;;;;;;;12.60;51.70;;;;;;5010516;28;19924;-88
2023/05/02 13:46:09;;;;;;;;;;;12.60;51.40;;;;;;5021991;28;19921;-88
2023/05/02 13:48:37;;;;;;;;;;;12.70;50.40;;;;;;5040561;28;19913;-88
2023/05/02 13:51:02;;;;;;;;;;;12.80;51.90;;;;;;5028021;28;19917;-88
2023/05/02 13:53:37;;;;;;;;;;;13.00;49.50;;;;;;5027868;28;19968;-87
2023/05/02 13:56:02;;;;;;;;;;;12.90;49.10;;;;;;5029364;28;20369;-89
2023/05/02 13:58:28;;;;;;;;;;;13.00;52.80;;;;;;5024063;28;19921;-88
2023/05/02 14:00:54;;;;;;;;;;;13.10;51.60;;;;;;5030806;28;20008;-87
2023/05/02 14:03:21;;;;;;;;;;;13.10;50.40;;;;;;5037947;28;20392;-87
2023/05/02 14:05:47;;;;;;;;;;;13.20;49.50;;;;;;5037727;28;19949;-87
2023/05/02 14:08:17;;;;;;;;;;;13.30;48.70;;;;;;5025266;28;19967;-84
2023/05/02 14:10:42;;;;;;;;;;;13.40;49.00;;;;;;5029185;28;20035;-84
2023/05/02 14:13:08;;;;;;;;;;;13.50;48.00;;;;;;5030544;28;19995;-84
2023/05/02 14:15:33;;;;;;;;;;;13.40;49.50;;;;;;5026738;28;19921;-86
2023/05/02 14:17:59;;;;;;;;;;;13.40;48.70;;;;;;5031229;28;19992;-84
2023/05/02 14:20:24;;;;;;;;;;;13.60;49.30;;;;;;5025826;28;19913;-85
2023/05/02 14:22:50;;;;;;;;;;;13.80;50.40;;;;;;5034123;28;20303;-86
2023/05/02 14:25:18;;;;;;;;;;;14.10;49.70;;;;;;5029884;28;19917;-85
2023/05/02 14:27:44;;;;;;;;;;;14.00;47.50;;;;;;5032713;28;19913;-85
2023/05/02 14:30:10;;;;;;;;;;;13.80;47.60;;;;;;5041038;28;20572;-86
2023/05/02 14:32:35;;;;;;;;;;;13.70;48.60;;;;;;5036910;28;19954;-84
2023/05/02 14:35:01;;;;;;;;;;;13.40;49.60;;;;;;5037715;28;20015;-84
2023/05/02 14:37:26;;;;;;;;;;;13.40;50.70;;;;;;5031859;28;19924;-85
2023/05/02 14:39:54;;;;;;;;;;;13.60;49.90;;;;;;5030054;28;20396;-85
2023/05/02 14:42:23;;;;;;;;;;;13.30;51.20;;;;;;5027254;28;20284;-84
2023/05/02 14:44:49;;;;;;;;;;;13.40;51.20;;;;;;5030945;28;19917;-86
2023/05/02 14:47:14;;;;;;;;;;;13.30;50.60;;;;;;5026033;28;19921;-84
2023/05/02 14:49:40;;;;;;;;;;;13.30;50.80;;;;;;5023741;28;19913;-85
2023/05/02 14:52:06;;;;;;;;;;;13.20;50.40;;;;;;5037078;28;19912;-85
2023/05/02 14:54:34;;;;;;;;;;;13.20;51.70;;;;;;5019943;28;19956;-85
2023/05/02 14:57:06;;;;;;;;;;;13.20;50.40;;;;;;5026983;28;20009;-86
2023/05/02 14:59:32;;;;;;;;;;;13.20;50.30;;;;;;5032263;28;19920;-83
2023/05/02 15:01:59;;;;;;;;;;;13.10;51.00;;;;;;5024253;28;19917;-86
2023/05/02 15:04:26;;;;;;;;;;;13.10;52.70;;;;;;5037947;28;19975;-87
2023/05/02 15:06:53;;;;;;;;;;;13.00;52.40;;;;;;5030595;28;20381;-86
2023/05/02 15:09:18;;;;;;;;;;;13.30;50.90;;;;;;5030027;28;19909;-86
2023/05/02 15:11:44;;;;;;;;;;;13.10;50.30;;;;;;5020685;28;19918;-87
2023/05/02 15:14:09;;;;;;;;;;;12.90;51.00;;;;;;5011913;28;19910;-87
2023/05/02 15:16:36;;;;;;;;;;;13.10;53.00;;;;;;5022835;28;19925;-87
2023/05/02 15:19:04;;;;;;;;;;;13.20;53.20;;;;;;5030151;28;19910;-87
2023/05/02 15:21:31;;;;;;;;;;;13.20;51.90;;;;;;5037461;28;19924;-87
2023/05/02 15:23:56;;;;;;;;;;;13.20;52.90;;;;;;5033580;28;19909;-87
2023/05/02 15:26:23;;;;;;;;;;;13.10;54.60;;;;;;5025055;28;19940;-87
2023/05/02 15:28:48;;;;;;;;;;;13.00;55.00;;;;;;5010563;28;19910;-87
2023/05/02 15:31:40;;;;;;;;;;;13.00;54.00;;;;;;5026886;28;20291;-87
2023/05/02 15:34:06;;;;;;;;;;;13.10;53.50;;;;;;5024697;28;19913;-85
2023/05/02 15:36:51;;;;;;;;;;;13.00;52.10;;;;;;5039314;28;19932;-87
2023/05/02 15:39:18;;;;;;;;;;;13.00;52.10;;;;;;5016778;28;20016;-86
2023/05/02 15:41:46;;;;;;;;;;;12.80;53.40;;;;;;5046927;28;19916;-86
2023/05/02 15:44:12;;;;;;;;;;;12.80;53.20;;;;;;5031397;28;19920;-86
2023/05/02 15:46:39;;;;;;;;;;;12.80;54.90;;;;;;5030886;28;19917;-87
2023/05/02 15:49:05;;;;;;;;;;;13.00;53.30;;;;;;5043299;28;19916;-87
2023/05/02 15:51:33;;;;;;;;;;;13.00;53.70;;;;;;5043772;28;19913;-86
2023/05/02 15:53:58;;;;;;;;;;;13.00;53.80;;;;;;5025313;28;19959;-86
2023/05/02 15:56:28;;;;;;;;;;;13.10;52.80;;;;;;5060083;28;21481;-87
2023/05/02 15:58:54;;;;;;;;;;;13.10;52.80;;;;;;5037177;28;19913;-86
2023/05/02 16:01:22;;;;;;;;;;;13.10;53.00;;;;;;5051628;28;19979;-86
2023/05/02 16:03:48;;;;;;;;;;;13.00;53.80;;;;;;5042731;28;19932;-86
2023/05/02 16:06:14;;;;;;;;;;;12.90;52.80;;;;;;5055519;28;19913;-86
2023/05/02 16:08:40;;;;;;;;;;;12.90;53.50;;;;;;5040802;28;19920;-86
2023/05/02 16:11:11;;;;;;;;;;;12.80;52.40;;;;;;5051110;28;19913;-86
2023/05/02 16:13:37;;;;;;;;;;;12.90;52.20;;;;;;5033946;28;19921;-85